sensor_id;sensor_type;location;lat;lon;timestamp;pressure;altitude;pressure_sealevel;temperature;humidity
71567;BME280;59403;47.456;19.120;2022-08-30T00:01:22;100560.13;;;21.57;83.23
71567;BME280;59403;47.456;19.120;2022-08-30T00:03:49;100554.94;;;21.56;83.15
71567;BME280;59403;47.456;19.120;2022-08-30T00:06:17;100551.66;;;21.54;83.27
71567;BME280;59403;47.456;19.120;2022-08-30T00:08:46;100554.34;;;21.54;83.18
71567;BME280;59403;47.456;19.120;2022-08-30T00:11:16;100557.03;;;21.54;83.11
71567;BME280;59403;47.456;19.120;2022-08-30T00:13:46;100551.88;;;21.52;82.92
71567;BME280;59403;47.456;19.120;2022-08-30T00:16:16;100557.66;;;21.56;82.73
71567;BME280;59403;47.456;19.120;2022-08-30T00:18:45;100555.56;;;21.58;82.46
71567;BME280;59403;47.456;19.120;2022-08-30T00:21:12;100558.91;;;21.53;82.74
71567;BME280;59403;47.456;19.120;2022-08-30T00:23:40;100551.88;;;21.52;82.78
71567;BME280;59403;47.456;19.120;2022-08-30T00:26:07;100553.13;;;21.50;82.75
71567;BME280;59403;47.456;19.120;2022-08-30T00:28:35;100551.12;;;21.45;82.57
71567;BME280;59403;47.456;19.120;2022-08-30T00:31:03;100551.59;;;21.42;82.40
71567;BME280;59403;47.456;19.120;2022-08-30T00:33:30;100553.66;;;21.40;82.31
71567;BME280;59403;47.456;19.120;2022-08-30T00:35:59;100551.44;;;21.37;82.29
71567;BME280;59403;47.456;19.120;2022-08-30T00:38:27;100551.63;;;21.35;82.28
71567;BME280;59403;47.456;19.120;2022-08-30T00:40:54;100558.53;;;21.31;82.47
71567;BME280;59403;47.456;19.120;2022-08-30T00:43:25;100556.47;;;21.27;82.67
71567;BME280;59403;47.456;19.120;2022-08-30T00:45:53;100568.94;;;21.28;82.74
71567;BME280;59403;47.456;19.120;2022-08-30T00:48:20;100570.84;;;21.21;83.05
71567;BME280;59403;47.456;19.120;2022-08-30T00:50:50;100569.03;;;21.15;83.44
71567;BME280;59403;47.456;19.120;2022-08-30T00:53:24;100573.78;;;21.19;83.50
71567;BME280;59403;47.456;19.120;2022-08-30T00:55:51;100569.66;;;21.17;83.68
71567;BME280;59403;47.456;19.120;2022-08-30T00:58:24;100573.56;;;21.21;83.49
71567;BME280;59403;47.456;19.120;2022-08-30T12:43:57;100482.19;;;27.60;43.25
71567;BME280;59403;47.456;19.120;2022-08-30T12:46:25;100473.88;;;27.30;43.08
71567;BME280;59403;47.456;19.120;2022-08-30T12:49:01;100467.75;;;27.60;42.92
71567;BME280;59403;47.456;19.120;2022-08-30T12:51:36;100469.84;;;28.20;42.31
71567;BME280;59403;47.456;19.120;2022-08-30T12:54:17;100469.88;;;28.40;40.55
71567;BME280;59403;47.456;19.120;2022-08-30T12:57:05;100459.78;;;28.90;39.81
71567;BME280;59403;47.456;19.120;2022-08-30T13:00:02;100457.59;;;28.92;38.80
71567;BME280;59403;47.456;19.120;2022-08-30T13:02:42;100458.94;;;29.00;40.68
71567;BME280;59403;47.456;19.120;2022-08-30T13:05:46;100453.78;;;29.14;39.93
71567;BME280;59403;47.456;19.120;2022-08-30T13:08:19;100451.25;;;29.27;39.32
71567;BME280;59403;47.456;19.120;2022-08-30T13:10:59;100442.72;;;29.44;39.14
71567;BME280;59403;47.456;19.120;2022-08-30T13:13:35;100436.19;;;29.45;38.38
71567;BME280;59403;47.456;19.120;2022-08-30T13:16:26;100446.25;;;29.49;38.38
71567;BME280;59403;47.456;19.120;2022-08-30T13:19:23;100444.91;;;29.47;38.78
71567;BME280;59403;47.456;19.120;2022-08-30T13:21:53;100441.16;;;29.33;38.78
71567;BME280;59403;47.456;19.120;2022-08-30T13:24:20;100436.75;;;29.37;37.97
71567;BME280;59403;47.456;19.120;2022-08-30T13:26:47;100429.94;;;29.39;38.52
71567;BME280;59403;47.456;19.120;2022-08-30T13:29:16;100430.50;;;29.26;38.39
71567;BME280;59403;47.456;19.120;2022-08-30T13:31:46;100436.84;;;29.17;38.41
71567;BME280;59403;47.456;19.120;2022-08-30T13:34:16;100426.44;;;29.24;38.43
71567;BME280;59403;47.456;19.120;2022-08-30T13:36:49;100425.94;;;29.17;38.63
71567;BME280;59403;47.456;19.120;2022-08-30T13:39:16;100420.72;;;29.20;39.00
71567;BME280;59403;47.456;19.120;2022-08-30T13:41:43;100415.78;;;29.27;39.33
71567;BME280;59403;47.456;19.120;2022-08-30T13:44:10;100416.91;;;29.16;39.03
71567;BME280;59403;47.456;19.120;2022-08-30T13:46:39;100416.66;;;29.02;39.42
71567;BME280;59403;47.456;19.120;2022-08-30T13:49:14;100411.78;;;28.84;39.99
71567;BME280;59403;47.456;19.120;2022-08-30T13:51:43;100409.91;;;28.80;40.76
71567;BME280;59403;47.456;19.120;2022-08-30T13:54:09;100402.00;;;28.78;40.91
71567;BME280;59403;47.456;19.120;2022-08-30T13:56:36;100406.87;;;28.86;41.03
71567;BME280;59403;47.456;19.120;2022-08-30T13:59:03;100405.53;;;28.74;41.33
71567;BME280;59403;47.456;19.120;2022-08-30T14:01:30;100398.22;;;28.59;42.37
71567;BME280;59403;47.456;19.120;2022-08-30T14:03:58;100396.00;;;28.71;41.86
71567;BME280;59403;47.456;19.120;2022-08-30T14:06:26;100397.66;;;28.57;42.92
71567;BME280;59403;47.456;19.120;2022-08-30T14:08:56;100387.31;;;28.29;43.46
71567;BME280;59403;47.456;19.120;2022-08-30T14:11:23;100393.59;;;28.20;43.57
71567;BME280;59403;47.456;19.120;2022-08-30T14:13:52;100386.50;;;27.99;44.16
71567;BME280;59403;47.456;19.120;2022-08-30T14:16:19;100382.06;;;27.87;44.09
71567;BME280;59403;47.456;19.120;2022-08-30T14:18:48;100379.34;;;27.77;43.88
71567;BME280;59403;47.456;19.120;2022-08-30T14:21:15;100381.25;;;27.77;43.36
71567;BME280;59403;47.456;19.120;2022-08-30T14:23:45;100373.31;;;27.60;44.32
71567;BME280;59403;47.456;19.120;2022-08-30T14:26:15;100374.94;;;27.51;44.38
71567;BME280;59403;47.456;19.120;2022-08-30T14:28:45;100364.56;;;27.38;45.65
71567;BME280;59403;47.456;19.120;2022-08-30T14:31:14;100364.25;;;27.30;44.52
71567;BME280;59403;47.456;19.120;2022-08-30T14:33:52;100372.09;;;27.26;44.54
71567;BME280;59403;47.456;19.120;2022-08-30T14:36:19;100368.28;;;27.17;44.81
71567;BME280;59403;47.456;19.120;2022-08-30T14:38:48;100363.69;;;27.28;44.16
71567;BME280;59403;47.456;19.120;2022-08-30T14:41:15;100371.59;;;27.29;44.38
71567;BME280;59403;47.456;19.120;2022-08-30T14:43:42;100378.88;;;27.19;45.38
71567;BME280;59403;47.456;19.120;2022-08-30T14:46:09;100366.59;;;27.11;44.81
71567;BME280;59403;47.456;19.120;2022-08-30T14:48:37;100367.16;;;27.13;44.19
71567;BME280;59403;47.456;19.120;2022-08-30T14:51:19;100366.84;;;27.05;44.42
71567;BME280;59403;47.456;19.120;2022-08-30T14:53:50;100369.81;;;26.98;45.30
71567;BME280;59403;47.456;19.120;2022-08-30T14:56:19;100365.66;;;26.85;45.99
71567;BME280;59403;47.456;19.120;2022-08-30T14:58:48;100361.28;;;26.79;46.46
71567;BME280;59403;47.456;19.120;2022-08-30T15:01:16;100365.38;;;26.82;46.10
71567;BME280;59403;47.456;19.120;2022-08-30T15:03:44;100355.56;;;26.81;45.93
71567;BME280;59403;47.456;19.120;2022-08-30T15:06:15;100358.56;;;26.79;45.85
71567;BME280;59403;47.456;19.120;2022-08-30T15:08:50;100343.56;;;26.67;46.59
71567;BME280;59403;47.456;19.120;2022-08-30T15:11:24;100357.34;;;26.65;47.20
71567;BME280;59403;47.456;19.120;2022-08-30T15:13:52;100349.97;;;26.56;47.68
71567;BME280;59403;47.456;19.120;2022-08-30T15:16:27;100350.47;;;26.48;48.22
71567;BME280;59403;47.456;19.120;2022-08-30T15:18:57;100355.91;;;26.48;47.98
71567;BME280;59403;47.456;19.120;2022-08-30T15:21:30;100344.44;;;26.41;48.09
71567;BME280;59403;47.456;19.120;2022-08-30T15:24:18;100350.09;;;26.34;48.77
71567;BME280;59403;47.456;19.120;2022-08-30T15:26:48;100350.06;;;26.29;49.82
71567;BME280;59403;47.456;19.120;2022-08-30T15:29:17;100353.81;;;26.23;49.77
71567;BME280;59403;47.456;19.120;2022-08-30T15:31:46;100348.06;;;26.15;50.54
71567;BME280;59403;47.456;19.120;2022-08-30T15:34:20;100354.50;;;26.09;51.06
71567;BME280;59403;47.456;19.120;2022-08-30T15:36:56;100342.37;;;26.16;50.62
71567;BME280;59403;47.456;19.120;2022-08-30T15:39:50;100347.78;;;26.16;50.74
71567;BME280;59403;47.456;19.120;2022-08-30T16:16:02;100318.22;;;25.88;53.50
71567;BME280;59403;47.456;19.120;2022-08-30T16:18:30;100343.53;;;25.99;53.58
71567;BME280;59403;47.456;19.120;2022-08-30T16:21:13;100338.69;;;26.01;53.42
71567;BME280;59403;47.456;19.120;2022-08-30T16:56:34;100336.28;;;25.77;53.60
71567;BME280;59403;47.456;19.120;2022-08-30T16:59:07;100329.69;;;25.68;53.74
71567;BME280;59403;47.456;19.120;2022-08-30T17:01:35;100331.84;;;25.66;54.03
71567;BME280;59403;47.456;19.120;2022-08-30T17:04:04;100344.88;;;25.64;54.21
71567;BME280;59403;47.456;19.120;2022-08-30T17:06:32;100341.53;;;25.57;54.64
71567;BME280;59403;47.456;19.120;2022-08-30T17:08:59;100343.62;;;25.50;54.75
71567;BME280;59403;47.456;19.120;2022-08-30T17:11:26;100343.06;;;25.48;54.76
71567;BME280;59403;47.456;19.120;2022-08-30T17:13:55;100346.09;;;25.52;54.36
71567;BME280;59403;47.456;19.120;2022-08-30T17:16:22;100347.09;;;25.46;54.49
71567;BME280;59403;47.456;19.120;2022-08-30T17:18:49;100349.25;;;25.44;54.34
71567;BME280;59403;47.456;19.120;2022-08-30T17:21:17;100353.28;;;25.41;52.95
71567;BME280;59403;47.456;19.120;2022-08-30T17:23:44;100350.84;;;25.40;53.67
71567;BME280;59403;47.456;19.120;2022-08-30T17:26:11;100351.81;;;25.34;53.69
71567;BME280;59403;47.456;19.120;2022-08-30T17:28:40;100353.88;;;25.43;52.61
71567;BME280;59403;47.456;19.120;2022-08-30T17:31:30;100353.88;;;25.43;51.53
71567;BME280;59403;47.456;19.120;2022-08-30T17:34:05;100352.22;;;25.42;50.70
71567;BME280;59403;47.456;19.120;2022-08-30T17:36:49;100356.41;;;25.33;51.29
71567;BME280;59403;47.456;19.120;2022-08-30T17:39:20;100358.75;;;25.25;51.21
71567;BME280;59403;47.456;19.120;2022-08-30T17:41:54;100365.78;;;25.21;51.69
71567;BME280;59403;47.456;19.120;2022-08-30T17:44:25;100374.06;;;25.14;51.51
71567;BME280;59403;47.456;19.120;2022-08-30T17:46:56;100377.81;;;25.08;51.58
71567;BME280;59403;47.456;19.120;2022-08-30T17:49:23;100380.97;;;25.00;51.25
71567;BME280;59403;47.456;19.120;2022-08-30T17:51:53;100379.50;;;24.93;51.43
71567;BME280;59403;47.456;19.120;2022-08-30T17:54:20;100387.38;;;24.94;51.18
71567;BME280;59403;47.456;19.120;2022-08-30T17:56:47;100387.50;;;24.83;51.28
71567;BME280;59403;47.456;19.120;2022-08-30T17:59:15;100402.03;;;24.77;51.69
71567;BME280;59403;47.456;19.120;2022-08-30T18:01:43;100408.91;;;24.67;52.03
71567;BME280;59403;47.456;19.120;2022-08-30T18:04:14;100410.16;;;24.60;52.32
71567;BME280;59403;47.456;19.120;2022-08-30T18:06:41;100400.22;;;24.49;52.50
71567;BME280;59403;47.456;19.120;2022-08-30T18:09:08;100408.03;;;24.45;52.82
71567;BME280;59403;47.456;19.120;2022-08-30T18:11:37;100405.81;;;24.42;52.78
71567;BME280;59403;47.456;19.120;2022-08-30T18:14:06;100416.25;;;24.34;53.33
71567;BME280;59403;47.456;19.120;2022-08-30T18:16:35;100423.97;;;24.25;53.60
71567;BME280;59403;47.456;19.120;2022-08-30T18:19:03;100420.59;;;24.18;53.79
71567;BME280;59403;47.456;19.120;2022-08-30T18:21:32;100423.22;;;24.13;54.08
71567;BME280;59403;47.456;19.120;2022-08-30T18:24:00;100421.97;;;24.04;54.51
71567;BME280;59403;47.456;19.120;2022-08-30T18:26:27;100424.59;;;23.99;54.68
71567;BME280;59403;47.456;19.120;2022-08-30T18:28:55;100432.00;;;23.92;55.10
71567;BME280;59403;47.456;19.120;2022-08-30T18:31:22;100429.19;;;23.87;55.54
71567;BME280;59403;47.456;19.120;2022-08-30T18:34:04;100427.44;;;23.81;56.08
71567;BME280;59403;47.456;19.120;2022-08-30T18:36:36;100425.16;;;23.73;56.81
71567;BME280;59403;47.456;19.120;2022-08-30T18:39:08;100426.94;;;23.68;57.39
71567;BME280;59403;47.456;19.120;2022-08-30T18:51:34;100439.81;;;23.37;59.00
71567;BME280;59403;47.456;19.120;2022-08-30T18:54:02;100445.22;;;23.37;58.94
71567;BME280;59403;47.456;19.120;2022-08-30T18:56:29;100442.28;;;23.39;59.00
71567;BME280;59403;47.456;19.120;2022-08-30T18:58:56;100445.84;;;23.28;59.61
71567;BME280;59403;47.456;19.120;2022-08-30T19:01:23;100444.41;;;23.25;59.58
71567;BME280;59403;47.456;19.120;2022-08-30T19:03:50;100444.31;;;23.20;59.99
71567;BME280;59403;47.456;19.120;2022-08-30T19:06:29;100439.28;;;23.12;60.32
71567;BME280;59403;47.456;19.120;2022-08-30T19:52:47;100450.63;;;22.45;62.69
71567;BME280;59403;47.456;19.120;2022-08-30T19:55:14;100446.16;;;22.39;63.16
71567;BME280;59403;47.456;19.120;2022-08-30T19:57:41;100439.44;;;22.30;63.27
71567;BME280;59403;47.456;19.120;2022-08-30T20:00:14;100431.09;;;22.20;63.55
71567;BME280;59403;47.456;19.120;2022-08-30T20:02:41;100436.87;;;22.23;64.08
71567;BME280;59403;47.456;19.120;2022-08-30T20:05:14;100439.66;;;22.17;64.34
71567;BME280;59403;47.456;19.120;2022-08-30T20:07:47;100435.78;;;22.13;64.57
71567;BME280;59403;47.456;19.120;2022-08-30T20:10:14;100414.50;;;21.93;64.63
71567;BME280;59403;47.456;19.120;2022-08-30T20:12:44;100446.56;;;22.13;64.32
71567;BME280;59403;47.456;19.120;2022-08-30T20:15:14;100444.91;;;22.12;64.21
71567;BME280;59403;47.456;19.120;2022-08-30T20:17:45;100445.38;;;22.09;64.70
71567;BME280;59403;47.456;19.120;2022-08-30T20:20:21;100444.66;;;22.02;64.98
71567;BME280;59403;47.456;19.120;2022-08-30T20:22:55;100447.69;;;21.94;64.97
71567;BME280;59403;47.456;19.120;2022-08-30T20:25:27;100448.66;;;21.99;64.98
71567;BME280;59403;47.456;19.120;2022-08-30T20:27:59;100438.09;;;21.98;64.75
71567;BME280;59403;47.456;19.120;2022-08-30T20:30:26;100443.91;;;21.95;64.89
71567;BME280;59403;47.456;19.120;2022-08-30T20:33:07;100430.66;;;21.93;65.06
71567;BME280;59403;47.456;19.120;2022-08-30T20:35:41;100437.00;;;21.87;65.32
71567;BME280;59403;47.456;19.120;2022-08-30T21:52:35;100432.94;;;21.12;69.00
71567;BME280;59403;47.456;19.120;2022-08-30T21:55:14;100440.28;;;21.05;69.27
71567;BME280;59403;47.456;19.120;2022-08-30T22:26:37;100439.97;;;20.89;69.77
71567;BME280;59403;47.456;19.120;2022-08-30T22:29:08;100433.19;;;20.86;69.53
71567;BME280;59403;47.456;19.120;2022-08-30T22:31:39;100439.38;;;20.87;69.41
71567;BME280;59403;47.456;19.120;2022-08-30T22:37:28;100436.13;;;20.85;69.44
71567;BME280;59403;47.456;19.120;2022-08-30T22:39:58;100458.91;;;20.82;68.13
71567;BME280;59403;47.456;19.120;2022-08-30T22:48:40;100452.78;;;21.18;65.90
71567;BME280;59403;47.456;19.120;2022-08-30T22:54:19;100445.72;;;21.17;66.51
71567;BME280;59403;47.456;19.120;2022-08-30T23:02:45;100441.91;;;21.06;68.20
71567;BME280;59403;47.456;19.120;2022-08-30T23:08:28;100438.66;;;20.98;68.76
71567;BME280;59403;47.456;19.120;2022-08-30T23:10:57;100436.25;;;20.90;69.04
71567;BME280;59403;47.456;19.120;2022-08-30T23:13:59;100413.28;;;20.69;69.45
71567;BME280;59403;47.456;19.120;2022-08-30T23:16:37;100429.28;;;20.82;69.75
71567;BME280;59403;47.456;19.120;2022-08-30T23:46:36;100417.97;;;20.31;72.73
71567;BME280;59403;47.456;19.120;2022-08-30T23:52:38;100427.13;;;20.23;73.88
71567;BME280;59403;47.456;19.120;2022-08-30T23:55:34;100419.00;;;20.30;72.80
71567;BME280;59403;47.456;19.120;2022-08-30T23:58:20;100416.00;;;20.13;73.29
